Time;durP1;ratioP1;P1;durP2;ratioP2;P2;SDS_P1;SDS_P2;PMS_P1;PMS_P2;Temp;Humidity;BMP_temperature;BMP_pressure;BME280_temperature;BME280_humidity;BME280_pressure;Samples;Min_cycle;Max_cycle;Signal;HPM_P1;HPM_P2
2022/12/03 00:00:47;;;;;;;46.00;22.23;;;2.50;99.90;;;1.28;100.00;101322.28;4236329;28;20063;-77
2022/12/03 00:02:48;;;;;;;44.83;22.50;;;2.50;99.90;;;1.26;100.00;101323.25;4220507;28;20020;-78
2022/12/03 00:04:49;;;;;;;40.00;21.23;;;2.40;99.90;;;1.24;100.00;101325.13;4220677;28;20031;-78
2022/12/03 00:06:49;;;;;;;47.33;23.25;;;2.40;99.90;;;1.26;100.00;101331.06;4220450;28;20024;-78
2022/12/03 00:08:50;;;;;;;47.20;24.25;;;2.40;99.90;;;1.38;100.00;101323.44;4220605;28;20019;-78
2022/12/03 00:10:51;;;;;;;49.55;24.45;;;2.50;99.90;;;1.54;100.00;101328.66;4215752;28;20062;-78
2022/12/03 00:12:52;;;;;;;48.47;22.25;;;2.50;99.90;;;1.60;100.00;101333.50;4217608;28;20035;-78
2022/12/03 00:14:53;;;;;;;48.83;23.65;;;2.70;99.90;;;1.71;100.00;101333.75;4219015;28;20070;-78
2022/12/03 00:16:54;;;;;;;50.70;23.85;;;2.70;99.90;;;1.76;100.00;101323.94;4219116;28;20028;-78
2022/12/03 00:18:55;;;;;;;56.08;24.75;;;2.90;99.90;;;1.87;100.00;101320.72;4219440;28;20031;-78
2022/12/03 00:20:55;;;;;;;50.03;24.42;;;3.00;99.90;;;1.94;100.00;101316.88;4220390;28;20047;-78
2022/12/03 00:22:56;;;;;;;41.92;22.77;;;3.00;99.90;;;1.96;100.00;101315.84;4220311;28;20033;-78
2022/12/03 00:24:57;;;;;;;45.88;23.95;;;3.10;99.90;;;2.14;100.00;101313.97;4220266;28;20399;-77
2022/12/03 00:26:58;;;;;;;48.00;22.92;;;3.20;99.90;;;2.14;100.00;101314.81;4220601;28;20016;-78
2022/12/03 00:28:59;;;;;;;51.75;22.73;;;3.30;99.90;;;2.20;100.00;101319.66;4220410;28;20031;-78
2022/12/03 00:31:00;;;;;;;50.28;24.55;;;3.30;99.90;;;2.24;100.00;101315.94;4220055;28;20027;-77
2022/12/03 00:33:00;;;;;;;45.13;21.50;;;3.40;99.90;;;2.30;100.00;101313.91;4202032;28;20021;-77
2022/12/03 00:35:01;;;;;;;47.78;21.20;;;3.50;99.90;;;2.44;100.00;101306.97;4219106;28;20020;-78
2022/12/03 00:37:02;;;;;;;46.15;22.75;;;3.50;99.90;;;2.48;100.00;101299.81;4219028;28;20032;-78
2022/12/03 00:39:03;;;;;;;42.90;21.33;;;3.50;99.90;;;2.48;100.00;101289.41;4220138;28;20016;-78
2022/12/03 00:41:04;;;;;;;43.38;22.05;;;3.60;99.90;;;2.48;100.00;101287.63;4218751;28;20059;-78
2022/12/03 00:43:05;;;;;;;41.72;20.27;;;3.60;99.90;;;2.50;100.00;101284.94;4218958;28;20024;-78
2022/12/03 00:45:07;;;;;;;45.65;20.48;;;3.70;99.90;;;2.57;100.00;101281.06;4201862;28;20025;-78
2022/12/03 00:47:08;;;;;;;42.10;20.08;;;3.70;99.90;;;2.55;100.00;101264.66;4252499;27;20016;-78
2022/12/03 00:49:09;;;;;;;45.90;21.70;;;3.70;99.90;;;2.61;100.00;101280.75;4218554;28;20020;-78
2022/12/03 00:51:10;;;;;;;47.55;21.40;;;3.70;99.90;;;2.62;100.00;101274.63;4201970;28;20013;-78
2022/12/03 00:53:11;;;;;;;36.90;19.23;;;3.70;99.90;;;2.69;100.00;101283.72;4219919;28;20032;-78
2022/12/03 00:55:12;;;;;;;37.10;19.65;;;3.80;99.90;;;2.74;100.00;101275.66;4219858;28;20031;-78
2022/12/03 00:57:13;;;;;;;44.60;20.23;;;3.80;99.90;;;2.71;100.00;101286.25;4218526;28;20038;-78
2022/12/03 00:59:13;;;;;;;43.65;21.08;;;3.80;99.90;;;2.68;100.00;101284.69;4218824;28;20044;-78
2022/12/03 01:01:14;;;;;;;36.67;19.23;;;3.80;99.90;;;2.77;100.00;101278.06;4218431;28;20020;-78
2022/12/03 01:03:15;;;;;;;39.60;20.35;;;3.90;99.90;;;2.74;100.00;101267.84;4219733;28;20035;-78
2022/12/03 01:05:17;;;;;;;36.22;18.17;;;3.90;99.90;;;2.74;100.00;101275.66;4219748;28;20059;-77
2022/12/03 01:07:18;;;;;;;38.97;19.00;;;3.90;99.90;;;2.76;100.00;101273.78;4252301;27;20027;-77
2022/12/03 01:09:19;;;;;;;40.20;18.92;;;3.90;99.90;;;2.79;100.00;101268.38;4217807;28;20568;-78
2022/12/03 01:11:40;;;;;;;40.53;19.17;;;3.90;99.90;;;2.77;100.00;101272.88;4219553;28;20103;-78
2022/12/03 01:13:40;;;;;;;39.22;17.85;;;3.90;99.90;;;2.87;100.00;101273.16;4204082;28;20028;-78
2022/12/03 01:15:41;;;;;;;39.40;18.13;;;3.90;99.90;;;2.83;100.00;101266.44;4219456;28;20054;-78
2022/12/03 01:17:42;;;;;;;40.10;18.80;;;4.00;99.90;;;2.86;100.00;101264.50;4218672;28;20036;-78
2022/12/03 01:19:43;;;;;;;38.40;18.88;;;3.90;99.90;;;2.79;100.00;101256.19;4219568;28;20052;-78
2022/12/03 01:21:50;;;;;;;40.55;18.40;;;3.90;99.90;;;2.77;100.00;101259.84;4201089;28;20040;-78
2022/12/03 01:23:50;;;;;;;40.70;19.92;;;3.90;99.90;;;2.81;100.00;101260.50;4218522;28;20515;-78
2022/12/03 01:25:51;;;;;;;37.83;18.65;;;3.90;99.90;;;2.82;100.00;101259.53;4219390;28;20024;-78
2022/12/03 01:27:52;;;;;;;42.95;19.58;;;3.90;99.90;;;2.80;100.00;101257.03;4219269;28;20487;-78
2022/12/03 01:29:53;;;;;;;40.45;20.98;;;3.90;99.90;;;2.81;100.00;101266.50;4217946;28;20024;-78
2022/12/03 01:34:14;;;;;;;42.08;19.70;;;3.90;99.90;;;2.78;100.00;101258.88;4219009;28;20115;-77
2022/12/03 01:36:14;;;;;;;32.67;17.80;;;4.00;99.90;;;2.82;100.00;101265.59;4217760;28;20024;-77
2022/12/03 01:38:15;;;;;;;41.55;19.45;;;4.00;99.90;;;2.89;100.00;101259.09;4251757;27;20023;-77
2022/12/03 01:40:20;;;;;;;38.72;19.75;;;4.00;99.90;;;2.84;100.00;101249.88;4219334;28;20057;-78
2022/12/03 01:42:29;;;;;;;38.55;19.45;;;4.00;99.90;;;2.86;100.00;101255.81;4217943;28;20024;-78
2022/12/03 01:44:33;;;;;;;37.55;17.88;;;4.00;99.90;;;2.87;100.00;101247.91;4235183;28;20169;-78
2022/12/03 01:46:39;;;;;;;35.50;18.48;;;4.00;99.90;;;2.94;100.00;101250.97;4219086;28;20032;-77
2022/12/03 01:48:40;;;;;;;40.78;18.33;;;4.00;99.90;;;2.93;100.00;101255.34;4217632;28;20081;-78
2022/12/03 01:50:42;;;;;;;40.30;18.90;;;4.00;99.90;;;2.95;100.00;101252.66;4234437;28;20115;-77
2022/12/03 01:52:44;;;;;;;40.55;19.25;;;4.10;99.90;;;2.88;100.00;101248.75;4217867;28;20020;-78
2022/12/03 01:54:53;;;;;;;33.95;17.85;;;4.10;99.90;;;2.94;100.00;101257.03;4219157;28;20024;-78
2022/12/03 01:56:55;;;;;;;39.42;18.88;;;4.10;99.90;;;2.89;100.00;101248.66;4217950;28;20024;-78
2022/12/03 01:58:55;;;;;;;34.22;17.45;;;4.10;99.90;;;2.87;100.00;101241.88;4218764;28;20399;-78
2022/12/03 02:01:01;;;;;;;37.03;17.85;;;4.00;99.90;;;2.96;100.00;101256.91;4217532;28;20024;-78
2022/12/03 02:03:11;;;;;;;37.75;19.13;;;4.00;99.90;;;2.98;100.00;101261.13;4217823;28;20538;-78
2022/12/03 02:05:25;;;;;;;39.78;18.90;;;4.10;99.90;;;2.99;100.00;101256.72;4217591;28;20032;-78
2022/12/03 02:07:32;;;;;;;36.58;17.20;;;4.10;99.90;;;3.00;100.00;101248.84;4218064;28;20043;-78
2022/12/03 02:09:33;;;;;;;38.95;16.55;;;4.10;99.90;;;2.99;100.00;101249.75;4234272;28;20027;-77
2022/12/03 02:11:38;;;;;;;32.50;16.67;;;4.20;99.90;;;3.02;100.00;101257.38;4217412;28;20020;-78
2022/12/03 02:13:40;;;;;;;38.78;17.98;;;4.20;99.90;;;3.06;100.00;101258.03;4250792;27;20030;-78
2022/12/03 02:15:41;;;;;;;36.80;17.17;;;4.20;99.90;;;3.04;100.00;101254.69;4217364;28;20027;-78
2022/12/03 02:17:42;;;;;;;34.28;17.55;;;4.10;99.90;;;3.01;100.00;101257.50;4216601;28;20028;-77
2022/12/03 02:19:43;;;;;;;35.03;18.05;;;4.20;99.90;;;3.03;100.00;101253.00;4217439;28;20032;-77
2022/12/03 02:22:46;;;;;;;33.15;17.20;;;4.20;99.90;;;3.06;100.00;101256.28;4217672;28;20036;-78
2022/12/03 02:25:33;;;;;;;34.50;16.25;;;4.20;99.90;;;3.08;100.00;101262.22;4169938;28;20144;-78
2022/12/03 02:27:34;;;;;;;33.88;16.92;;;4.20;99.90;;;3.04;100.00;101255.53;4218637;28;20039;-78
2022/12/03 02:29:35;;;;;;;37.20;17.60;;;4.20;99.90;;;3.09;100.00;101266.50;4200168;28;20520;-78
2022/12/03 02:31:36;;;;;;;35.92;17.63;;;4.20;99.90;;;3.09;100.00;101268.25;4205865;28;20092;-77
2022/12/03 02:33:38;;;;;;;38.10;17.77;;;4.20;99.90;;;3.05;100.00;101275.44;4217329;28;20035;-77
2022/12/03 02:35:39;;;;;;;35.60;17.05;;;4.20;99.90;;;3.11;100.00;101272.44;4217323;28;20028;-77
2022/12/03 02:37:42;;;;;;;36.17;17.20;;;4.20;99.90;;;3.14;100.00;101277.47;4217169;28;20028;-78
2022/12/03 02:39:57;;;;;;;29.05;16.02;;;4.30;99.90;;;3.06;100.00;101274.50;4217356;28;20038;-78
2022/12/03 02:44:18;;;;;;;29.95;15.93;;;4.30;99.90;;;3.13;100.00;101269.75;4218254;28;20084;-78
2022/12/03 02:46:19;;;;;;;32.92;15.77;;;4.30;99.90;;;3.16;100.00;101249.56;4217432;28;20028;-78
2022/12/03 02:48:32;;;;;;;35.58;15.85;;;4.30;99.90;;;3.19;100.00;101261.56;4217414;28;20024;-78
2022/12/03 02:50:38;;;;;;;33.60;15.85;;;4.30;99.90;;;3.15;100.00;101253.09;4217297;28;20101;-78
2022/12/03 02:52:40;;;;;;;35.55;15.27;;;4.30;99.90;;;3.17;100.00;101256.44;4217449;28;20054;-78
2022/12/03 02:54:41;;;;;;;33.88;15.88;;;4.30;99.90;;;3.20;100.00;101247.56;4217372;28;20012;-78
2022/12/03 02:56:42;;;;;;;37.22;16.77;;;4.30;99.90;;;3.17;100.00;101238.19;4217116;28;20020;-78
2022/12/03 02:58:47;;;;;;;32.65;14.60;;;4.40;99.90;;;3.25;100.00;101248.13;4217141;28;20039;-77
2022/12/03 03:00:50;;;;;;;31.10;14.75;;;4.40;99.90;;;3.23;100.00;101244.78;4234315;28;20494;-78
2022/12/03 03:02:51;;;;;;;34.47;15.75;;;4.40;99.90;;;3.39;100.00;101232.44;4217155;28;20476;-78
2022/12/03 03:04:54;;;;;;;28.88;13.93;;;4.40;99.90;;;3.31;100.00;101232.09;4218381;28;20028;-77
2022/12/03 03:06:55;;;;;;;33.90;16.08;;;4.40;99.90;;;3.27;100.00;101241.88;4218283;28;20024;-77
2022/12/03 03:08:56;;;;;;;28.83;14.93;;;4.40;99.90;;;3.28;100.00;101242.72;4217116;28;20056;-78
2022/12/03 03:11:00;;;;;;;30.25;15.07;;;4.40;99.90;;;3.38;100.00;101242.97;4233983;28;20026;-77
2022/12/03 03:13:06;;;;;;;38.03;14.30;;;4.40;99.90;;;3.34;100.00;101245.75;4217084;28;20023;-78
2022/12/03 03:15:10;;;;;;;30.15;14.77;;;4.40;99.90;;;3.32;100.00;101244.19;4216750;28;20032;-78
2022/12/03 03:17:11;;;;;;;36.30;16.13;;;4.40;99.90;;;3.24;100.00;101239.47;4217352;28;20020;-77
2022/12/03 03:19:12;;;;;;;39.35;15.88;;;4.40;99.90;;;3.27;100.00;101246.25;4216006;28;20028;-78
2022/12/03 03:21:13;;;;;;;33.70;16.17;;;4.40;99.90;;;3.27;100.00;101246.25;4200069;28;20436;-77
2022/12/03 03:23:18;;;;;;;34.58;16.35;;;4.40;99.90;;;3.28;100.00;101240.13;4216707;28;20048;-77
2022/12/03 03:25:21;;;;;;;33.83;15.90;;;4.40;99.90;;;3.32;100.00;101239.81;4217068;28;20059;-77
2022/12/03 03:27:22;;;;;;;31.52;15.35;;;4.40;99.90;;;3.28;100.00;101237.53;4218149;28;20024;-77
2022/12/03 03:29:23;;;;;;;30.38;15.10;;;4.40;99.90;;;3.22;100.00;101223.09;4250414;28;20019;-77
2022/12/03 03:31:41;;;;;;;33.53;15.02;;;4.40;99.90;;;3.26;100.00;101224.56;4173536;28;20083;-78
2022/12/03 03:33:44;;;;;;;28.38;14.02;;;4.40;99.90;;;3.30;100.00;101220.84;4219008;28;20581;-77
2022/12/03 03:35:47;;;;;;;33.22;15.90;;;4.40;99.90;;;3.30;100.00;101223.44;4220085;28;20024;-77
2022/12/03 03:37:48;;;;;;;31.35;15.85;;;4.40;99.90;;;3.26;100.00;101223.72;4219844;28;20506;-77
2022/12/03 03:39:50;;;;;;;33.72;16.58;;;4.40;99.90;;;3.24;100.00;101216.00;4220008;28;20040;-77
2022/12/03 03:41:51;;;;;;;33.55;15.65;;;4.40;99.90;;;3.22;100.00;101207.47;4221217;28;20020;-77
2022/12/03 03:43:52;;;;;;;34.03;15.35;;;4.30;99.90;;;3.25;100.00;101216.84;4219856;28;20054;-77
2022/12/03 03:45:54;;;;;;;30.73;14.57;;;4.30;99.90;;;3.23;100.00;101213.50;4220664;28;20028;-77
2022/12/03 03:47:58;;;;;;;30.42;14.95;;;4.40;99.90;;;3.24;100.00;101208.19;4219952;28;20629;-78
2022/12/03 03:49:59;;;;;;;30.05;14.88;;;4.30;99.90;;;3.21;100.00;101204.94;4219827;28;20035;-77
2022/12/03 03:52:00;;;;;;;30.92;13.82;;;4.30;99.90;;;3.17;100.00;101208.66;4219909;28;20039;-78
2022/12/03 03:54:03;;;;;;;32.40;14.80;;;4.30;99.90;;;3.14;100.00;101208.84;4220776;28;20035;-78
2022/12/03 03:56:04;;;;;;;27.70;14.25;;;4.30;99.90;;;3.07;100.00;101198.00;4219741;28;20046;-77
2022/12/03 03:58:06;;;;;;;28.98;13.23;;;4.30;99.90;;;3.09;100.00;101206.56;4219883;28;20035;-77
2022/12/03 04:00:08;;;;;;;31.10;14.15;;;4.20;99.90;;;3.11;100.00;101198.63;4219419;28;20031;-77
2022/12/03 04:02:27;;;;;;;30.55;13.80;;;4.20;99.90;;;3.13;100.00;101200.22;4220750;28;20024;-78
2022/12/03 04:04:34;;;;;;;31.52;13.50;;;4.30;99.90;;;3.08;100.00;101209.25;4219682;28;20074;-77
2022/12/03 04:06:34;;;;;;;32.35;14.75;;;4.20;99.90;;;3.17;100.00;101198.22;4219505;28;20055;-77
2022/12/03 04:08:35;;;;;;;30.95;13.75;;;4.20;99.90;;;3.11;100.00;101194.25;4219191;28;20511;-77
2022/12/03 04:12:56;;;;;;;26.83;13.55;;;4.20;99.90;;;3.12;100.00;101193.34;4248635;27;20081;-77
2022/12/03 04:14:57;;;;;;;28.85;12.88;;;4.30;99.90;;;3.16;100.00;101188.75;4220295;28;20024;-78
2022/12/03 04:16:58;;;;;;;27.90;13.95;;;4.20;99.90;;;3.19;100.00;101197.22;4220611;28;20024;-78
2022/12/03 04:18:59;;;;;;;29.92;13.13;;;4.30;99.90;;;3.14;100.00;101183.63;4252201;27;20030;-77
2022/12/03 04:23:19;;;;;;;27.92;13.50;;;4.30;99.90;;;3.10;100.00;101184.78;4219337;28;20055;-77
2022/12/03 04:29:59;;;;;;;37.92;13.77;;;4.30;99.90;;;3.08;100.00;101180.56;4219324;28;20030;-78
2022/12/03 04:36:39;;;;;;;26.67;13.10;;;4.30;99.90;;;3.06;100.00;101180.69;4219584;28;20071;-77
2022/12/03 04:38:40;;;;;;;29.65;14.55;;;4.20;99.90;;;3.05;100.00;101176.41;4220351;28;20024;-77
2022/12/03 04:41:00;;;;;;;29.77;15.27;;;4.20;99.90;;;3.09;100.00;101171.84;4218957;28;20081;-78
2022/12/03 04:43:01;;;;;;;30.75;13.20;;;4.20;99.90;;;3.10;100.00;101176.97;4219383;28;20480;-78
2022/12/03 04:45:02;;;;;;;29.95;13.13;;;4.20;99.90;;;3.14;100.00;101178.41;4219075;28;20037;-77
2022/12/03 04:47:12;;;;;;;29.10;13.65;;;4.20;99.90;;;3.05;100.00;101179.00;4201952;28;20495;-78
2022/12/03 04:49:13;;;;;;;27.42;14.10;;;4.20;99.90;;;3.14;100.00;101172.38;4218721;28;20499;-77
2022/12/03 04:51:14;;;;;;;29.80;14.95;;;4.20;99.90;;;3.13;100.00;101170.72;4220038;28;20027;-78
2022/12/03 04:53:15;;;;;;;32.17;13.88;;;4.20;99.90;;;3.09;100.00;101180.50;4218768;28;20035;-77
2022/12/03 04:55:15;;;;;;;28.02;12.70;;;4.20;99.90;;;3.11;100.00;101181.22;4219943;28;20074;-77
2022/12/03 04:57:16;;;;;;;25.63;11.82;;;4.30;99.90;;;3.12;100.00;101174.25;4219919;28;20020;-77
2022/12/03 04:59:17;;;;;;;31.00;12.75;;;4.20;99.90;;;3.11;100.00;101168.19;4219788;28;20024;-78
2022/12/03 05:01:18;;;;;;;29.42;12.75;;;4.20;99.90;;;3.13;100.00;101170.72;4218463;28;20024;-77
2022/12/03 05:03:19;;;;;;;28.02;12.77;;;4.30;99.90;;;3.11;100.00;101162.13;4219901;28;20144;-77
2022/12/03 05:05:20;;;;;;;25.05;13.50;;;4.30;99.90;;;3.08;100.00;101152.75;4219659;28;20028;-77
2022/12/03 05:07:21;;;;;;;26.77;11.90;;;4.30;99.90;;;3.14;100.00;101152.34;4218694;28;20023;-77
2022/12/03 05:09:22;;;;;;;25.67;12.07;;;4.30;99.90;;;3.10;100.00;101156.13;4219715;28;20028;-77
2022/12/03 05:11:23;;;;;;;24.52;11.63;;;4.30;99.90;;;3.15;100.00;101161.00;4219646;28;20452;-77
2022/12/03 05:13:23;;;;;;;27.00;12.50;;;4.20;99.90;;;3.18;100.00;101153.84;4219523;28;20459;-77
2022/12/03 05:15:24;;;;;;;27.27;12.75;;;4.30;99.90;;;3.13;100.00;101153.31;4218344;28;20072;-77
2022/12/03 05:17:25;;;;;;;24.70;11.98;;;4.30;99.90;;;3.20;100.00;101159.78;4218575;28;20523;-77
2022/12/03 05:20:40;;;;;;;22.92;12.05;;;4.30;99.90;;;3.18;100.00;101155.59;4251110;27;20027;-77
2022/12/03 05:21:47;;;;;;;22.67;11.80;;;4.30;99.90;;;3.10;100.00;101150.91;4219147;28;20055;-77
2022/12/03 05:23:48;;;;;;;21.95;11.48;;;4.30;99.90;;;3.10;100.00;101161.31;4218482;28;20024;-77
2022/12/03 05:25:49;;;;;;;23.85;12.02;;;4.30;99.90;;;3.09;100.00;101145.78;4218439;28;20039;-78
2022/12/03 05:27:50;;;;;;;26.13;12.15;;;4.30;99.90;;;3.11;100.00;101154.31;4218148;28;20103;-77
2022/12/03 05:29:52;;;;;;;26.50;11.80;;;4.30;99.90;;;3.09;100.00;101149.22;4217843;28;20020;-78
2022/12/03 05:31:52;;;;;;;21.73;11.90;;;4.30;99.90;;;3.14;100.00;101157.56;4218380;28;20111;-78
2022/12/03 05:33:54;;;;;;;29.38;13.38;;;4.30;99.90;;;3.10;100.00;101152.66;4219332;28;20422;-77
2022/12/03 05:35:54;;;;;;;23.42;11.63;;;4.30;99.90;;;3.18;100.00;101153.84;4219628;28;20024;-77
2022/12/03 05:37:55;;;;;;;27.05;12.20;;;4.30;99.90;;;3.19;100.00;101154.69;4217969;28;20024;-77
2022/12/03 05:39:56;;;;;;;22.38;12.32;;;4.30;99.90;;;3.16;100.00;101152.28;4218309;28;20028;-78
2022/12/03 05:44:16;;;;;;;26.30;12.95;;;4.30;99.90;;;3.23;100.00;101149.16;4218822;28;20077;-77
2022/12/03 05:46:17;;;;;;;29.95;13.18;;;4.30;99.90;;;3.19;100.00;101152.06;4218022;28;20484;-77
2022/12/03 05:48:18;;;;;;;28.63;13.38;;;4.30;99.90;;;3.25;100.00;101152.53;4251575;27;20023;-77
2022/12/03 05:50:22;;;;;;;27.58;14.48;;;4.30;99.90;;;3.18;100.00;101148.63;4217907;28;20128;-77
2022/12/03 05:52:23;;;;;;;30.05;13.40;;;4.30;99.90;;;3.20;100.00;101149.34;4218973;28;20063;-77
2022/12/03 05:54:24;;;;;;;28.05;13.57;;;4.30;99.90;;;3.13;100.00;101145.50;4219272;28;20028;-78
2022/12/03 05:56:25;;;;;;;30.73;14.90;;;4.30;99.90;;;3.18;100.00;101138.19;4219084;28;20024;-77
2022/12/03 05:58:25;;;;;;;24.95;12.50;;;4.30;99.90;;;3.17;100.00;101146.94;4219112;28;20024;-77
2022/12/03 06:00:30;;;;;;;31.88;13.30;;;4.40;99.90;;;3.17;100.00;101140.88;4217518;28;20070;-78
2022/12/03 06:02:31;;;;;;;;;;;4.30;99.90;;;3.18;100.00;101146.03;4235023;28;20031;-78
2022/12/03 06:04:31;;;;;;;31.17;14.48;;;4.30;99.90;;;3.19;100.00;101142.50;4218966;28;20359;-78
2022/12/03 06:06:32;;;;;;;30.15;14.00;;;4.30;99.90;;;3.21;100.00;101143.22;4218521;28;20052;-77
2022/12/03 06:08:33;;;;;;;30.30;14.75;;;4.30;99.90;;;3.21;100.00;101138.00;4218625;28;20027;-77
2022/12/03 06:10:34;;;;;;;32.03;15.02;;;4.30;99.90;;;3.18;100.00;101133.00;4218843;28;20020;-77
2022/12/03 06:12:35;;;;;;;29.27;14.80;;;4.30;99.90;;;3.16;100.00;101131.41;4217596;28;20476;-77
2022/12/03 06:14:36;;;;;;;31.63;14.32;;;4.30;99.90;;;3.14;100.00;101131.50;4218595;28;20024;-77
2022/12/03 06:16:37;;;;;;;33.05;14.32;;;4.30;99.90;;;3.12;100.00;101122.13;4218580;28;20024;-77
2022/12/03 06:18:37;;;;;;;33.58;13.93;;;4.30;99.90;;;3.11;100.00;101125.66;4216623;28;20027;-77
2022/12/03 06:20:38;;;;;;;30.98;14.35;;;4.30;99.90;;;3.13;100.00;101119.44;4234280;28;20038;-77
2022/12/03 06:22:39;;;;;;;30.00;14.75;;;4.30;99.90;;;3.14;100.00;101123.69;4218611;28;20527;-77
2022/12/03 06:24:40;;;;;;;33.17;14.88;;;4.30;99.90;;;3.14;100.00;101121.09;4217414;28;20103;-77
2022/12/03 06:26:41;;;;;;;31.15;14.80;;;4.30;99.90;;;3.15;100.00;101119.31;4218635;28;20077;-77
2022/12/03 06:28:46;;;;;;;28.08;13.95;;;4.30;99.90;;;3.12;100.00;101122.13;4217367;28;20028;-77
2022/12/03 06:30:47;;;;;;;28.52;14.35;;;4.30;99.90;;;3.10;100.00;101122.22;4234355;28;20027;-78
2022/12/03 06:32:48;;;;;;;31.55;15.05;;;4.30;99.90;;;3.12;100.00;101124.72;4200461;28;20020;-77
2022/12/03 06:34:49;;;;;;;35.08;15.90;;;4.30;99.90;;;3.11;100.00;101126.50;4250907;27;20015;-77
2022/12/03 06:36:49;;;;;;;29.05;15.15;;;4.30;99.90;;;3.13;100.00;101118.59;4217472;28;20032;-77
2022/12/03 06:38:50;;;;;;;34.42;15.63;;;4.30;99.90;;;3.11;100.00;101123.88;4251155;28;20029;-77
2022/12/03 06:40:51;;;;;;;30.17;13.88;;;4.30;99.90;;;3.13;100.00;101126.41;4217304;28;20119;-77
2022/12/03 06:42:52;;;;;;;32.63;15.93;;;4.30;99.90;;;3.12;100.00;101119.50;4217105;28;20399;-77
2022/12/03 06:44:53;;;;;;;29.85;14.00;;;4.30;99.90;;;3.13;100.00;101122.03;4217191;28;20111;-78
2022/12/03 06:46:54;;;;;;;31.98;14.05;;;4.30;99.90;;;3.16;100.00;101124.44;4217144;28;20027;-77
2022/12/03 06:48:55;;;;;;;33.33;14.38;;;4.30;99.90;;;3.16;100.00;101103.59;4216983;28;20032;-77
2022/12/03 06:50:55;;;;;;;41.83;15.25;;;4.30;99.90;;;3.15;100.00;101104.50;4217274;28;20020;-77
2022/12/03 06:52:56;;;;;;;34.88;16.35;;;4.30;99.90;;;3.19;100.00;101111.22;4218412;28;20151;-77
2022/12/03 06:54:57;;;;;;;35.55;14.88;;;4.30;99.90;;;3.18;100.00;101112.13;4218287;28;20396;-77
2022/12/03 06:56:59;;;;;;;30.70;15.35;;;4.40;99.90;;;3.17;100.00;101104.41;4218321;28;20024;-77
2022/12/03 06:59:00;;;;;;;34.72;15.40;;;4.30;99.90;;;3.14;100.00;101102.84;4217027;28;20541;-77
2022/12/03 07:01:00;;;;;;;34.22;15.40;;;4.30;99.90;;;3.18;100.00;101111.28;4218227;28;20029;-77
2022/12/03 07:03:01;;;;;;;31.98;15.65;;;4.30;99.90;;;3.19;100.00;101108.59;4218746;28;20027;-77
2022/12/03 07:05:03;;;;;;;29.58;13.82;;;4.30;99.90;;;3.21;100.00;101100.66;4216832;28;20040;-77
2022/12/03 07:07:04;;;;;;;32.10;14.23;;;4.30;99.90;;;3.36;100.00;101097.06;4216946;28;20032;-77
2022/12/03 07:09:04;;;;;;;28.25;13.95;;;4.30;99.90;;;3.25;100.00;101103.00;4220900;28;20408;-77
2022/12/03 07:13:25;;;;;;;36.17;14.57;;;4.40;99.90;;;3.28;100.00;101097.56;4220788;28;20039;-78
2022/12/03 07:15:26;;;;;;;31.55;14.07;;;4.40;99.90;;;3.27;100.00;101095.91;4220144;28;20020;-78
2022/12/03 07:17:27;;;;;;;31.65;14.32;;;4.40;99.90;;;3.32;100.00;101104.25;4220387;28;20020;-77
2022/12/03 07:19:28;;;;;;;32.08;14.23;;;4.40;99.90;;;3.32;100.00;101103.41;4219273;28;20058;-78
2022/12/03 07:21:28;;;;;;;29.40;13.63;;;4.50;99.90;;;3.37;100.00;101116.16;4221311;28;20036;-78
2022/12/03 07:23:29;;;;;;;33.03;15.27;;;4.40;99.90;;;3.43;100.00;101111.38;4220817;28;20063;-77
2022/12/03 07:25:30;;;;;;;30.95;14.73;;;4.50;99.90;;;3.37;100.00;101106.56;4219550;28;20043;-77
2022/12/03 07:27:31;;;;;;;27.10;13.93;;;4.50;99.90;;;3.43;100.00;101120.97;4220105;28;20020;-78
2022/12/03 07:29:32;;;;;;;29.27;14.77;;;4.50;99.90;;;3.36;100.00;101117.91;4220936;28;20061;-77
2022/12/03 07:31:33;;;;;;;27.63;14.27;;;4.50;99.90;;;3.39;100.00;101109.06;4221360;28;20396;-77
2022/12/03 07:33:33;;;;;;;32.17;14.20;;;4.50;99.90;;;3.40;100.00;101113.34;4220108;28;20031;-77
2022/12/03 07:35:34;;;;;;;31.33;13.50;;;4.50;99.90;;;3.41;100.00;101117.59;4221190;28;20125;-77
2022/12/03 07:37:35;;;;;;;34.47;14.25;;;4.50;99.90;;;3.41;100.00;101104.56;4219912;28;20062;-77
2022/12/03 07:39:36;;;;;;;32.38;14.20;;;4.60;99.90;;;3.44;100.00;101101.75;4219843;28;20032;-77
2022/12/03 07:41:37;;;;;;;31.95;14.57;;;4.60;99.90;;;3.50;100.00;101101.34;4221367;28;20039;-77
2022/12/03 07:43:38;;;;;;;32.85;15.13;;;4.60;99.90;;;3.45;100.00;101098.22;4221047;28;20031;-77
2022/12/03 07:45:39;;;;;;;33.17;15.32;;;4.60;99.90;;;3.45;100.00;101103.44;4220650;28;20028;-77
2022/12/03 07:47:40;;;;;;;35.47;15.80;;;4.50;99.90;;;3.51;100.00;101097.81;4220729;28;20399;-77
2022/12/03 07:49:40;;;;;;;32.88;14.95;;;4.60;99.90;;;3.51;100.00;101109.09;4221142;28;20036;-77
2022/12/03 07:51:41;;;;;;;29.98;14.00;;;4.60;99.90;;;3.47;100.00;101106.75;4219869;28;20070;-77
2022/12/03 07:53:42;;;;;;;34.92;15.38;;;4.60;99.90;;;3.46;100.00;101103.34;4219786;28;20048;-77
2022/12/03 07:55:43;;;;;;;38.17;16.52;;;4.60;99.90;;;3.45;100.00;101104.28;4220753;28;20024;-77
2022/12/03 07:57:44;;;;;;;35.55;16.60;;;4.60;99.90;;;3.47;100.00;101111.97;4219463;28;20427;-77
2022/12/03 07:59:45;;;;;;;35.65;15.57;;;4.60;99.90;;;3.49;100.00;101110.97;4220310;28;20024;-77
2022/12/03 08:01:46;;;;;;;32.72;14.63;;;4.60;99.90;;;3.51;100.00;101103.88;4220332;28;20087;-78
2022/12/03 08:03:47;;;;;;;32.22;15.40;;;4.60;99.90;;;3.58;100.00;101114.72;4220307;28;20020;-77
2022/12/03 08:05:47;;;;;;;32.58;14.27;;;4.60;99.90;;;3.56;100.00;101100.94;4219220;28;20035;-78
2022/12/03 08:07:48;;;;;;;36.88;16.63;;;4.60;99.90;;;3.54;100.00;101108.88;4220755;28;20052;-77
2022/12/03 08:09:49;;;;;;;30.55;15.75;;;4.60;99.90;;;3.63;100.00;101107.44;4220617;28;20542;-77
2022/12/03 08:11:51;;;;;;;33.80;16.45;;;4.70;99.90;;;3.58;100.00;101104.28;4219307;28;20063;-77
2022/12/03 08:13:52;;;;;;;37.45;16.75;;;4.70;99.90;;;3.57;100.00;101102.63;4202495;28;20420;-77
2022/12/03 08:15:58;;;;;;;33.53;17.25;;;4.70;99.90;;;3.64;100.00;101103.88;4219213;28;20024;-77
2022/12/03 08:18:04;;;;;;;34.83;15.52;;;4.70;99.90;;;3.56;100.00;101095.72;4203440;28;20419;-77
2022/12/03 08:20:16;;;;;;;34.20;15.20;;;4.70;99.90;;;3.59;100.00;101111.16;4217476;28;20032;-77
2022/12/03 08:22:17;;;;;;;30.45;14.82;;;4.70;99.90;;;3.61;100.00;101101.47;4209807;28;20510;-77
2022/12/03 08:24:20;;;;;;;32.67;15.85;;;4.70;99.90;;;3.57;100.00;101102.63;4219390;28;20032;-77
2022/12/03 08:26:26;;;;;;;29.65;14.10;;;4.70;99.90;;;3.62;100.00;101105.75;4219052;28;20031;-77
2022/12/03 08:28:27;;;;;;;31.15;14.05;;;4.70;99.90;;;3.65;100.00;101101.16;4219099;28;20103;-77
2022/12/03 08:30:28;;;;;;;33.90;15.82;;;4.70;99.90;;;3.67;100.00;101099.31;4218986;28;20020;-77
2022/12/03 08:32:30;;;;;;;31.90;14.60;;;4.80;99.90;;;3.67;100.00;101095.84;4220317;28;20020;-77
2022/12/03 08:34:41;;;;;;;33.60;16.25;;;4.80;99.90;;;3.71;100.00;101087.69;4220186;28;20444;-77
2022/12/03 08:36:43;;;;;;;33.40;16.65;;;4.80;99.90;;;3.77;100.00;101089.06;4235835;28;20026;-78
2022/12/03 08:38:55;;;;;;;33.55;15.57;;;4.90;99.90;;;3.80;100.00;101088.84;4219071;28;20035;-77
2022/12/03 08:40:56;;;;;;;29.98;15.90;;;4.90;99.90;;;3.86;100.00;101094.50;4218976;28;20024;-77
2022/12/03 08:42:56;;;;;;;33.65;15.90;;;4.90;99.90;;;3.86;100.00;101091.88;4220491;28;20028;-77
2022/12/03 08:45:38;;;;;;;33.55;16.38;;;5.00;99.90;;;3.81;100.00;101090.53;4219525;28;20487;-77
2022/12/03 08:47:39;;;;;;;33.78;15.68;;;5.00;99.90;;;3.81;100.00;101086.16;4219867;28;20117;-77